sensor_id;sensor_type;location;lat;lon;timestamp;P1;durP1;ratioP1;P2;durP2;ratioP2
25045;SDS011;13044;49.304;12.840;2022-09-09T00:01:52;32.83;;;11.30;;
25045;SDS011;13044;49.304;12.840;2022-09-09T00:04:32;22.88;;;9.32;;
25045;SDS011;13044;49.304;12.840;2022-09-09T00:12:35;38.50;;;12.50;;
25045;SDS011;13044;49.304;12.840;2022-09-09T00:15:20;41.95;;;14.65;;
25045;SDS011;13044;49.304;12.840;2022-09-09T00:17:56;49.67;;;16.77;;
25045;SDS011;13044;49.304;12.840;2022-09-09T00:23:25;74.88;;;24.13;;
25045;SDS011;13044;49.304;12.840;2022-09-09T00:31:25;134.57;;;43.97;;
25045;SDS011;13044;49.304;12.840;2022-09-09T00:33:58;83.80;;;27.07;;
25045;SDS011;13044;49.304;12.840;2022-09-09T00:36:50;61.45;;;22.90;;
25045;SDS011;13044;49.304;12.840;2022-09-09T00:39:37;67.20;;;21.33;;
25045;SDS011;13044;49.304;12.840;2022-09-09T00:42:13;45.75;;;17.17;;
25045;SDS011;13044;49.304;12.840;2022-09-09T00:47:50;36.17;;;12.23;;
25045;SDS011;13044;49.304;12.840;2022-09-09T00:53:33;51.35;;;14.23;;
25045;SDS011;13044;49.304;12.840;2022-09-09T00:56:21;33.03;;;11.77;;
25045;SDS011;13044;49.304;12.840;2022-09-09T00:59:31;13.20;;;6.25;;
25045;SDS011;13044;49.304;12.840;2022-09-09T01:02:02;23.52;;;4.15;;
25045;SDS011;13044;49.304;12.840;2022-09-09T01:04:42;6.88;;;3.13;;
25045;SDS011;13044;49.304;12.840;2022-09-09T01:07:14;11.02;;;2.67;;
25045;SDS011;13044;49.304;12.840;2022-09-09T01:09:50;3.70;;;2.42;;
25045;SDS011;13044;49.304;12.840;2022-09-09T01:12:35;7.85;;;2.78;;
25045;SDS011;13044;49.304;12.840;2022-09-09T01:18:05;2.95;;;2.17;;
25045;SDS011;13044;49.304;12.840;2022-09-09T01:23:32;3.95;;;2.08;;
25045;SDS011;13044;49.304;12.840;2022-09-09T01:26:23;4.45;;;2.70;;
25045;SDS011;13044;49.304;12.840;2022-09-09T01:29:01;3.97;;;2.22;;
25045;SDS011;13044;49.304;12.840;2022-09-09T01:31:32;14.63;;;2.10;;
25045;SDS011;13044;49.304;12.840;2022-09-09T01:34:18;4.80;;;2.30;;
25045;SDS011;13044;49.304;12.840;2022-09-09T01:36:49;3.50;;;2.28;;
25045;SDS011;13044;49.304;12.840;2022-09-09T01:39:25;4.10;;;1.95;;
25045;SDS011;13044;49.304;12.840;2022-09-09T01:41:53;4.15;;;2.92;;
25045;SDS011;13044;49.304;12.840;2022-09-09T01:44:21;4.10;;;2.10;;
25045;SDS011;13044;49.304;12.840;2022-09-09T01:46:49;3.17;;;2.10;;
25045;SDS011;13044;49.304;12.840;2022-09-09T01:49:17;7.82;;;2.70;;
25045;SDS011;13044;49.304;12.840;2022-09-09T01:51:44;10.07;;;5.75;;
25045;SDS011;13044;49.304;12.840;2022-09-09T01:54:16;16.23;;;6.88;;
25045;SDS011;13044;49.304;12.840;2022-09-09T02:04:54;23.35;;;10.45;;
25045;SDS011;13044;49.304;12.840;2022-09-09T02:10:24;21.67;;;6.97;;
25045;SDS011;13044;49.304;12.840;2022-09-09T02:13:04;5.05;;;3.55;;
25045;SDS011;13044;49.304;12.840;2022-09-09T02:18:09;5.88;;;2.42;;
25045;SDS011;13044;49.304;12.840;2022-09-09T02:20:39;3.72;;;2.28;;
25045;SDS011;13044;49.304;12.840;2022-09-09T02:23:07;6.10;;;2.08;;
25045;SDS011;13044;49.304;12.840;2022-09-09T02:25:37;4.57;;;1.80;;
25045;SDS011;13044;49.304;12.840;2022-09-09T02:28:06;2.42;;;1.90;;
25045;SDS011;13044;49.304;12.840;2022-09-09T02:30:36;4.45;;;2.03;;
25045;SDS011;13044;49.304;12.840;2022-09-09T02:33:06;2.60;;;2.20;;
25045;SDS011;13044;49.304;12.840;2022-09-09T02:35:36;3.97;;;1.60;;
25045;SDS011;13044;49.304;12.840;2022-09-09T02:38:05;3.42;;;1.42;;
25045;SDS011;13044;49.304;12.840;2022-09-09T02:40:37;7.25;;;2.10;;
25045;SDS011;13044;49.304;12.840;2022-09-09T02:43:04;2.83;;;1.77;;
25045;SDS011;13044;49.304;12.840;2022-09-09T02:45:38;9.80;;;1.75;;
25045;SDS011;13044;49.304;12.840;2022-09-09T02:48:22;1.83;;;1.73;;
25045;SDS011;13044;49.304;12.840;2022-09-09T02:51:13;3.67;;;2.42;;
25045;SDS011;13044;49.304;12.840;2022-09-09T02:54:04;3.08;;;1.50;;
25045;SDS011;13044;49.304;12.840;2022-09-09T02:57:08;3.10;;;1.40;;
25045;SDS011;13044;49.304;12.840;2022-09-09T02:59:51;5.03;;;1.60;;
25045;SDS011;13044;49.304;12.840;2022-09-09T03:02:19;2.33;;;1.70;;
25045;SDS011;13044;49.304;12.840;2022-09-09T03:04:46;2.75;;;2.20;;
25045;SDS011;13044;49.304;12.840;2022-09-09T03:07:20;2.70;;;1.95;;
25045;SDS011;13044;49.304;12.840;2022-09-09T03:09:47;2.30;;;1.52;;
25045;SDS011;13044;49.304;12.840;2022-09-09T03:12:14;4.57;;;1.75;;
25045;SDS011;13044;49.304;12.840;2022-09-09T03:14:42;3.75;;;1.75;;
25045;SDS011;13044;49.304;12.840;2022-09-09T03:17:11;4.18;;;1.80;;
25045;SDS011;13044;49.304;12.840;2022-09-09T03:19:38;2.13;;;1.60;;
25045;SDS011;13044;49.304;12.840;2022-09-09T03:22:06;7.00;;;2.00;;
25045;SDS011;13044;49.304;12.840;2022-09-09T03:24:35;3.40;;;1.85;;
25045;SDS011;13044;49.304;12.840;2022-09-09T03:27:02;3.50;;;1.70;;
25045;SDS011;13044;49.304;12.840;2022-09-09T03:29:29;6.22;;;1.88;;
25045;SDS011;13044;49.304;12.840;2022-09-09T03:31:56;1.90;;;1.50;;
25045;SDS011;13044;49.304;12.840;2022-09-09T03:34:23;2.92;;;1.67;;
25045;SDS011;13044;49.304;12.840;2022-09-09T03:36:50;3.05;;;1.80;;
25045;SDS011;13044;49.304;12.840;2022-09-09T03:39:16;2.75;;;1.50;;
25045;SDS011;13044;49.304;12.840;2022-09-09T03:41:43;6.72;;;1.77;;
25045;SDS011;13044;49.304;12.840;2022-09-09T03:44:11;2.20;;;1.90;;
25045;SDS011;13044;49.304;12.840;2022-09-09T03:46:38;5.82;;;2.03;;
25045;SDS011;13044;49.304;12.840;2022-09-09T03:49:05;4.00;;;1.73;;
25045;SDS011;13044;49.304;12.840;2022-09-09T03:51:32;7.00;;;1.92;;
25045;SDS011;13044;49.304;12.840;2022-09-09T03:54:02;3.63;;;1.73;;
25045;SDS011;13044;49.304;12.840;2022-09-09T03:56:31;9.50;;;2.00;;
25045;SDS011;13044;49.304;12.840;2022-09-09T03:58:57;3.65;;;2.15;;
25045;SDS011;13044;49.304;12.840;2022-09-09T04:01:24;2.45;;;2.00;;
25045;SDS011;13044;49.304;12.840;2022-09-09T04:03:51;3.63;;;2.08;;
25045;SDS011;13044;49.304;12.840;2022-09-09T04:06:18;4.20;;;1.65;;
25045;SDS011;13044;49.304;12.840;2022-09-09T04:08:47;2.67;;;2.10;;
25045;SDS011;13044;49.304;12.840;2022-09-09T04:11:15;7.40;;;2.00;;
25045;SDS011;13044;49.304;12.840;2022-09-09T04:13:42;2.90;;;1.90;;
25045;SDS011;13044;49.304;12.840;2022-09-09T04:16:10;6.60;;;2.08;;
25045;SDS011;13044;49.304;12.840;2022-09-09T04:18:39;8.02;;;1.80;;
25045;SDS011;13044;49.304;12.840;2022-09-09T04:21:06;1.98;;;1.77;;
25045;SDS011;13044;49.304;12.840;2022-09-09T04:23:34;4.63;;;1.83;;
25045;SDS011;13044;49.304;12.840;2022-09-09T04:26:02;4.97;;;1.90;;
25045;SDS011;13044;49.304;12.840;2022-09-09T04:28:30;2.22;;;1.90;;
25045;SDS011;13044;49.304;12.840;2022-09-09T04:31:07;2.90;;;2.28;;
25045;SDS011;13044;49.304;12.840;2022-09-09T04:34:01;4.50;;;1.92;;
25045;SDS011;13044;49.304;12.840;2022-09-09T04:36:34;3.03;;;2.15;;
25045;SDS011;13044;49.304;12.840;2022-09-09T04:39:01;2.75;;;1.85;;
25045;SDS011;13044;49.304;12.840;2022-09-09T04:41:28;2.38;;;2.10;;
25045;SDS011;13044;49.304;12.840;2022-09-09T04:43:57;4.93;;;2.17;;
25045;SDS011;13044;49.304;12.840;2022-09-09T04:46:25;4.35;;;2.67;;
25045;SDS011;13044;49.304;12.840;2022-09-09T04:48:53;3.85;;;3.13;;
25045;SDS011;13044;49.304;12.840;2022-09-09T04:51:19;27.85;;;4.22;;
25045;SDS011;13044;49.304;12.840;2022-09-09T04:53:46;8.25;;;3.47;;
25045;SDS011;13044;49.304;12.840;2022-09-09T04:56:14;6.63;;;3.17;;
25045;SDS011;13044;49.304;12.840;2022-09-09T04:58:43;5.70;;;3.45;;
25045;SDS011;13044;49.304;12.840;2022-09-09T05:01:11;3.25;;;2.97;;
25045;SDS011;13044;49.304;12.840;2022-09-09T05:03:43;6.95;;;3.53;;
25045;SDS011;13044;49.304;12.840;2022-09-09T05:06:13;6.60;;;2.92;;
25045;SDS011;13044;49.304;12.840;2022-09-09T05:08:43;5.00;;;3.00;;
25045;SDS011;13044;49.304;12.840;2022-09-09T05:13:50;6.32;;;3.20;;
25045;SDS011;13044;49.304;12.840;2022-09-09T05:16:18;3.72;;;2.70;;
25045;SDS011;13044;49.304;12.840;2022-09-09T05:18:46;3.42;;;3.00;;
25045;SDS011;13044;49.304;12.840;2022-09-09T05:21:14;4.53;;;3.00;;
25045;SDS011;13044;49.304;12.840;2022-09-09T05:23:46;6.13;;;3.30;;
25045;SDS011;13044;49.304;12.840;2022-09-09T05:26:14;7.00;;;3.40;;
25045;SDS011;13044;49.304;12.840;2022-09-09T05:28:43;6.50;;;3.33;;
25045;SDS011;13044;49.304;12.840;2022-09-09T05:31:11;4.60;;;3.22;;
25045;SDS011;13044;49.304;12.840;2022-09-09T05:33:41;3.67;;;3.35;;
25045;SDS011;13044;49.304;12.840;2022-09-09T05:36:12;4.38;;;3.30;;
25045;SDS011;13044;49.304;12.840;2022-09-09T05:38:40;4.38;;;3.40;;
25045;SDS011;13044;49.304;12.840;2022-09-09T05:41:07;5.03;;;3.67;;
25045;SDS011;13044;49.304;12.840;2022-09-09T05:43:37;6.05;;;3.60;;
25045;SDS011;13044;49.304;12.840;2022-09-09T05:46:05;4.82;;;3.60;;
25045;SDS011;13044;49.304;12.840;2022-09-09T05:48:44;8.90;;;3.95;;
25045;SDS011;13044;49.304;12.840;2022-09-09T05:51:14;7.75;;;4.18;;
25045;SDS011;13044;49.304;12.840;2022-09-09T05:53:47;8.65;;;4.20;;
25045;SDS011;13044;49.304;12.840;2022-09-09T05:56:18;4.07;;;3.65;;
25045;SDS011;13044;49.304;12.840;2022-09-09T05:58:48;9.43;;;4.07;;
25045;SDS011;13044;49.304;12.840;2022-09-09T06:01:16;4.68;;;3.58;;
25045;SDS011;13044;49.304;12.840;2022-09-09T06:03:52;4.45;;;3.95;;
25045;SDS011;13044;49.304;12.840;2022-09-09T06:06:20;4.63;;;3.67;;
25045;SDS011;13044;49.304;12.840;2022-09-09T06:11:23;5.20;;;3.30;;
25045;SDS011;13044;49.304;12.840;2022-09-09T06:13:52;4.47;;;3.60;;
25045;SDS011;13044;49.304;12.840;2022-09-09T06:16:21;5.40;;;3.05;;
25045;SDS011;13044;49.304;12.840;2022-09-09T06:18:51;3.72;;;3.10;;
25045;SDS011;13044;49.304;12.840;2022-09-09T06:21:26;5.63;;;3.28;;
25045;SDS011;13044;49.304;12.840;2022-09-09T06:23:59;5.18;;;3.47;;
25045;SDS011;13044;49.304;12.840;2022-09-09T06:26:27;5.80;;;3.50;;
25045;SDS011;13044;49.304;12.840;2022-09-09T06:28:57;3.55;;;3.25;;
25045;SDS011;13044;49.304;12.840;2022-09-09T06:31:26;5.15;;;3.60;;
25045;SDS011;13044;49.304;12.840;2022-09-09T06:33:57;3.17;;;2.85;;
25045;SDS011;13044;49.304;12.840;2022-09-09T06:36:25;5.22;;;3.60;;
25045;SDS011;13044;49.304;12.840;2022-09-09T06:41:26;4.75;;;3.25;;
25045;SDS011;13044;49.304;12.840;2022-09-09T06:43:55;3.70;;;2.97;;
25045;SDS011;13044;49.304;12.840;2022-09-09T06:46:23;6.80;;;2.78;;
25045;SDS011;13044;49.304;12.840;2022-09-09T06:48:54;5.60;;;3.22;;
25045;SDS011;13044;49.304;12.840;2022-09-09T06:51:29;6.40;;;3.35;;
25045;SDS011;13044;49.304;12.840;2022-09-09T06:53:58;4.65;;;3.08;;
25045;SDS011;13044;49.304;12.840;2022-09-09T06:56:29;2.97;;;2.70;;
25045;SDS011;13044;49.304;12.840;2022-09-09T06:58:59;5.75;;;2.95;;
25045;SDS011;13044;49.304;12.840;2022-09-09T07:01:30;3.65;;;2.50;;
25045;SDS011;13044;49.304;12.840;2022-09-09T07:04:00;4.05;;;2.40;;
25045;SDS011;13044;49.304;12.840;2022-09-09T07:06:34;3.33;;;2.30;;
25045;SDS011;13044;49.304;12.840;2022-09-09T07:09:04;4.15;;;2.40;;
25045;SDS011;13044;49.304;12.840;2022-09-09T07:11:46;3.65;;;2.30;;
25045;SDS011;13044;49.304;12.840;2022-09-09T07:14:15;2.72;;;2.20;;
25045;SDS011;13044;49.304;12.840;2022-09-09T07:16:43;3.63;;;1.95;;
25045;SDS011;13044;49.304;12.840;2022-09-09T07:19:12;3.47;;;2.13;;
25045;SDS011;13044;49.304;12.840;2022-09-09T07:21:40;2.20;;;2.00;;
25045;SDS011;13044;49.304;12.840;2022-09-09T07:24:08;3.75;;;1.95;;
25045;SDS011;13044;49.304;12.840;2022-09-09T07:26:36;4.50;;;2.40;;
25045;SDS011;13044;49.304;12.840;2022-09-09T07:29:05;5.45;;;2.38;;
25045;SDS011;13044;49.304;12.840;2022-09-09T07:31:34;3.22;;;1.92;;
25045;SDS011;13044;49.304;12.840;2022-09-09T07:34:04;5.00;;;2.00;;
25045;SDS011;13044;49.304;12.840;2022-09-09T07:36:36;3.65;;;2.50;;
25045;SDS011;13044;49.304;12.840;2022-09-09T07:39:06;2.75;;;1.98;;
25045;SDS011;13044;49.304;12.840;2022-09-09T07:41:36;1.92;;;1.77;;
25045;SDS011;13044;49.304;12.840;2022-09-09T07:44:15;6.97;;;2.25;;
25045;SDS011;13044;49.304;12.840;2022-09-09T07:46:47;2.63;;;1.90;;
25045;SDS011;13044;49.304;12.840;2022-09-09T07:49:14;2.75;;;2.00;;
25045;SDS011;13044;49.304;12.840;2022-09-09T07:51:42;3.17;;;1.75;;
25045;SDS011;13044;49.304;12.840;2022-09-09T07:54:12;6.03;;;1.90;;
25045;SDS011;13044;49.304;12.840;2022-09-09T07:56:41;6.15;;;2.22;;
25045;SDS011;13044;49.304;12.840;2022-09-09T07:59:08;3.75;;;1.70;;
25045;SDS011;13044;49.304;12.840;2022-09-09T08:01:37;4.85;;;1.70;;
25045;SDS011;13044;49.304;12.840;2022-09-09T08:04:11;4.40;;;1.98;;
25045;SDS011;13044;49.304;12.840;2022-09-09T08:06:47;4.32;;;1.95;;
25045;SDS011;13044;49.304;12.840;2022-09-09T08:09:20;3.33;;;2.08;;
25045;SDS011;13044;49.304;12.840;2022-09-09T08:11:51;6.22;;;2.25;;
25045;SDS011;13044;49.304;12.840;2022-09-09T08:14:17;4.78;;;1.83;;
25045;SDS011;13044;49.304;12.840;2022-09-09T08:16:46;2.67;;;1.60;;
25045;SDS011;13044;49.304;12.840;2022-09-09T08:19:14;2.03;;;1.50;;
25045;SDS011;13044;49.304;12.840;2022-09-09T08:21:41;5.55;;;1.70;;
25045;SDS011;13044;49.304;12.840;2022-09-09T08:24:10;2.92;;;1.30;;
25045;SDS011;13044;49.304;12.840;2022-09-09T08:26:42;6.78;;;2.00;;
25045;SDS011;13044;49.304;12.840;2022-09-09T08:31:40;3.58;;;1.60;;
25045;SDS011;13044;49.304;12.840;2022-09-09T08:34:10;4.20;;;1.80;;
25045;SDS011;13044;49.304;12.840;2022-09-09T08:36:39;5.10;;;1.65;;
25045;SDS011;13044;49.304;12.840;2022-09-09T08:39:09;2.40;;;1.60;;
25045;SDS011;13044;49.304;12.840;2022-09-09T08:47:14;2.72;;;1.40;;
25045;SDS011;13044;49.304;12.840;2022-09-09T09:01:11;2.17;;;1.10;;
25045;SDS011;13044;49.304;12.840;2022-09-09T09:03:56;2.00;;;1.30;;
25045;SDS011;13044;49.304;12.840;2022-09-09T09:06:46;2.60;;;1.33;;
25045;SDS011;13044;49.304;12.840;2022-09-09T09:12:18;2.38;;;1.52;;
25045;SDS011;13044;49.304;12.840;2022-09-09T09:14:48;1.70;;;1.00;;
25045;SDS011;13044;49.304;12.840;2022-09-09T09:17:17;2.55;;;1.50;;
25045;SDS011;13044;49.304;12.840;2022-09-09T09:19:47;6.00;;;1.55;;
25045;SDS011;13044;49.304;12.840;2022-09-09T09:22:26;4.43;;;1.40;;
25045;SDS011;13044;49.304;12.840;2022-09-09T09:25:23;3.42;;;1.50;;
25045;SDS011;13044;49.304;12.840;2022-09-09T09:28:03;2.88;;;1.20;;
25045;SDS011;13044;49.304;12.840;2022-09-09T09:30:49;5.18;;;1.17;;
25045;SDS011;13044;49.304;12.840;2022-09-09T09:33:25;3.10;;;1.50;;
25045;SDS011;13044;49.304;12.840;2022-09-09T09:35:59;4.22;;;1.85;;
25045;SDS011;13044;49.304;12.840;2022-09-09T09:38:28;5.75;;;1.65;;
25045;SDS011;13044;49.304;12.840;2022-09-09T09:41:15;4.90;;;1.15;;
25045;SDS011;13044;49.304;12.840;2022-09-09T09:43:52;5.35;;;1.70;;
25045;SDS011;13044;49.304;12.840;2022-09-09T09:46:22;2.95;;;1.30;;
25045;SDS011;13044;49.304;12.840;2022-09-09T09:48:58;5.22;;;1.70;;
25045;SDS011;13044;49.304;12.840;2022-09-09T09:51:34;2.72;;;1.70;;
25045;SDS011;13044;49.304;12.840;2022-09-09T09:54:17;9.07;;;1.75;;
25045;SDS011;13044;49.304;12.840;2022-09-09T09:56:54;6.28;;;1.63;;
25045;SDS011;13044;49.304;12.840;2022-09-09T09:59:23;2.88;;;1.30;;
25045;SDS011;13044;49.304;12.840;2022-09-09T10:02:06;3.35;;;1.33;;
25045;SDS011;13044;49.304;12.840;2022-09-09T10:04:42;4.20;;;1.40;;
25045;SDS011;13044;49.304;12.840;2022-09-09T10:07:10;3.83;;;1.33;;
25045;SDS011;13044;49.304;12.840;2022-09-09T10:09:47;3.65;;;1.15;;
25045;SDS011;13044;49.304;12.840;2022-09-09T10:15:21;1.27;;;0.80;;
25045;SDS011;13044;49.304;12.840;2022-09-09T10:18:23;1.83;;;0.80;;
25045;SDS011;13044;49.304;12.840;2022-09-09T10:21:20;1.35;;;0.70;;
25045;SDS011;13044;49.304;12.840;2022-09-09T10:27:00;2.75;;;0.80;;
25045;SDS011;13044;49.304;12.840;2022-09-09T10:30:00;3.28;;;1.55;;
25045;SDS011;13044;49.304;12.840;2022-09-09T10:38:42;1.95;;;1.00;;
25045;SDS011;13044;49.304;12.840;2022-09-09T10:41:18;2.55;;;0.98;;
25045;SDS011;13044;49.304;12.840;2022-09-09T10:44:12;2.00;;;1.00;;
25045;SDS011;13044;49.304;12.840;2022-09-09T10:55:51;1.95;;;0.80;;
25045;SDS011;13044;49.304;12.840;2022-09-09T10:58:31;2.90;;;0.90;;
25045;SDS011;13044;49.304;12.840;2022-09-09T11:01:36;2.67;;;0.88;;
25045;SDS011;13044;49.304;12.840;2022-09-09T11:04:15;1.05;;;0.77;;
25045;SDS011;13044;49.304;12.840;2022-09-09T11:06:50;2.10;;;0.80;;
25045;SDS011;13044;49.304;12.840;2022-09-09T11:09:23;4.82;;;1.02;;
25045;SDS011;13044;49.304;12.840;2022-09-09T11:11:56;3.85;;;1.17;;
25045;SDS011;13044;49.304;12.840;2022-09-09T11:17:22;2.58;;;0.70;;
25045;SDS011;13044;49.304;12.840;2022-09-09T11:19:56;1.17;;;1.08;;
25045;SDS011;13044;49.304;12.840;2022-09-09T11:25:01;1.58;;;1.02;;
25045;SDS011;13044;49.304;12.840;2022-09-09T11:33:31;1.77;;;1.20;;
25045;SDS011;13044;49.304;12.840;2022-09-09T11:42:36;0.93;;;0.77;;
25045;SDS011;13044;49.304;12.840;2022-09-09T11:47:52;2.67;;;1.10;;
25045;SDS011;13044;49.304;12.840;2022-09-09T11:53:02;2.17;;;1.20;;
25045;SDS011;13044;49.304;12.840;2022-09-09T11:55:31;3.13;;;1.25;;
25045;SDS011;13044;49.304;12.840;2022-09-09T11:58:21;4.00;;;1.30;;
25045;SDS011;13044;49.304;12.840;2022-09-09T12:00:49;2.67;;;1.20;;
25045;SDS011;13044;49.304;12.840;2022-09-09T12:03:32;2.58;;;1.10;;
25045;SDS011;13044;49.304;12.840;2022-09-09T12:06:48;4.13;;;1.55;;
25045;SDS011;13044;49.304;12.840;2022-09-09T12:09:04;2.87;;;1.43;;
25045;SDS011;13044;49.304;12.840;2022-09-09T12:11:37;1.77;;;1.15;;
25045;SDS011;13044;49.304;12.840;2022-09-09T12:14:03;2.75;;;1.15;;
25045;SDS011;13044;49.304;12.840;2022-09-09T12:16:34;1.45;;;1.13;;
25045;SDS011;13044;49.304;12.840;2022-09-09T12:19:15;2.05;;;1.30;;
25045;SDS011;13044;49.304;12.840;2022-09-09T12:22:00;3.28;;;1.48;;
25045;SDS011;13044;49.304;12.840;2022-09-09T12:25:08;1.38;;;0.95;;
25045;SDS011;13044;49.304;12.840;2022-09-09T12:30:56;2.90;;;1.20;;
25045;SDS011;13044;49.304;12.840;2022-09-09T12:33:38;1.55;;;1.13;;
25045;SDS011;13044;49.304;12.840;2022-09-09T12:36:12;1.42;;;1.20;;
25045;SDS011;13044;49.304;12.840;2022-09-09T12:38:45;4.53;;;1.17;;
25045;SDS011;13044;49.304;12.840;2022-09-09T12:41:19;1.60;;;1.10;;
25045;SDS011;13044;49.304;12.840;2022-09-09T12:44:05;2.72;;;1.20;;
25045;SDS011;13044;49.304;12.840;2022-09-09T12:49:20;1.88;;;1.20;;
25045;SDS011;13044;49.304;12.840;2022-09-09T12:52:02;1.63;;;1.10;;
25045;SDS011;13044;49.304;12.840;2022-09-09T12:54:34;1.92;;;0.82;;
25045;SDS011;13044;49.304;12.840;2022-09-09T12:57:03;2.47;;;0.88;;
25045;SDS011;13044;49.304;12.840;2022-09-09T12:59:38;3.75;;;1.05;;
25045;SDS011;13044;49.304;12.840;2022-09-09T13:02:11;2.83;;;1.15;;
25045;SDS011;13044;49.304;12.840;2022-09-09T13:04:50;1.17;;;0.70;;
25045;SDS011;13044;49.304;12.840;2022-09-09T13:07:18;1.20;;;1.00;;
25045;SDS011;13044;49.304;12.840;2022-09-09T13:09:46;2.80;;;0.75;;
25045;SDS011;13044;49.304;12.840;2022-09-09T13:12:21;3.67;;;1.08;;
25045;SDS011;13044;49.304;12.840;2022-09-09T13:14:50;3.30;;;0.60;;
25045;SDS011;13044;49.304;12.840;2022-09-09T13:17:21;2.47;;;0.90;;
25045;SDS011;13044;49.304;12.840;2022-09-09T13:19:51;2.70;;;1.05;;
25045;SDS011;13044;49.304;12.840;2022-09-09T13:22:20;1.23;;;0.90;;
25045;SDS011;13044;49.304;12.840;2022-09-09T13:27:55;0.93;;;0.80;;
25045;SDS011;13044;49.304;12.840;2022-09-09T13:30:29;5.60;;;1.00;;
25045;SDS011;13044;49.304;12.840;2022-09-09T13:35:53;5.93;;;0.95;;
25045;SDS011;13044;49.304;12.840;2022-09-09T13:38:37;2.25;;;1.20;;
25045;SDS011;13044;49.304;12.840;2022-09-09T13:41:35;1.95;;;1.02;;
25045;SDS011;13044;49.304;12.840;2022-09-09T13:44:17;1.52;;;0.95;;
25045;SDS011;13044;49.304;12.840;2022-09-09T13:47:01;5.97;;;1.20;;
25045;SDS011;13044;49.304;12.840;2022-09-09T13:49:42;1.40;;;0.68;;
25045;SDS011;13044;49.304;12.840;2022-09-09T13:52:13;4.45;;;0.90;;
25045;SDS011;13044;49.304;12.840;2022-09-09T13:54:49;3.00;;;0.65;;
25045;SDS011;13044;49.304;12.840;2022-09-09T13:57:21;2.20;;;1.10;;
25045;SDS011;13044;49.304;12.840;2022-09-09T13:59:52;2.75;;;1.05;;
25045;SDS011;13044;49.304;12.840;2022-09-09T14:02:36;2.53;;;1.05;;
25045;SDS011;13044;49.304;12.840;2022-09-09T14:05:04;1.92;;;0.75;;
25045;SDS011;13044;49.304;12.840;2022-09-09T14:07:32;1.67;;;0.90;;
25045;SDS011;13044;49.304;12.840;2022-09-09T14:09:59;4.57;;;0.82;;
25045;SDS011;13044;49.304;12.840;2022-09-09T14:12:26;1.63;;;0.90;;
25045;SDS011;13044;49.304;12.840;2022-09-09T14:14:53;2.28;;;0.70;;
25045;SDS011;13044;49.304;12.840;2022-09-09T14:17:20;6.38;;;1.20;;
25045;SDS011;13044;49.304;12.840;2022-09-09T14:19:48;1.77;;;0.80;;
25045;SDS011;13044;49.304;12.840;2022-09-09T14:22:15;1.70;;;1.00;;
25045;SDS011;13044;49.304;12.840;2022-09-09T14:24:42;2.95;;;1.13;;
25045;SDS011;13044;49.304;12.840;2022-09-09T14:27:08;1.77;;;1.00;;
25045;SDS011;13044;49.304;12.840;2022-09-09T14:29:35;5.57;;;1.10;;
25045;SDS011;13044;49.304;12.840;2022-09-09T14:32:02;4.63;;;1.05;;
25045;SDS011;13044;49.304;12.840;2022-09-09T14:34:32;3.42;;;1.00;;
25045;SDS011;13044;49.304;12.840;2022-09-09T14:36:59;2.88;;;1.15;;
25045;SDS011;13044;49.304;12.840;2022-09-09T14:39:26;4.45;;;1.10;;
25045;SDS011;13044;49.304;12.840;2022-09-09T14:41:53;2.38;;;0.82;;
25045;SDS011;13044;49.304;12.840;2022-09-09T14:44:20;1.75;;;1.02;;
25045;SDS011;13044;49.304;12.840;2022-09-09T14:46:47;1.33;;;0.80;;
25045;SDS011;13044;49.304;12.840;2022-09-09T14:49:16;2.30;;;0.85;;
25045;SDS011;13044;49.304;12.840;2022-09-09T14:51:42;0.90;;;0.60;;
25045;SDS011;13044;49.304;12.840;2022-09-09T14:54:09;2.78;;;1.00;;
25045;SDS011;13044;49.304;12.840;2022-09-09T14:56:36;1.73;;;1.10;;
25045;SDS011;13044;49.304;12.840;2022-09-09T14:59:04;4.38;;;1.27;;
25045;SDS011;13044;49.304;12.840;2022-09-09T15:01:31;1.98;;;0.90;;
25045;SDS011;13044;49.304;12.840;2022-09-09T15:04:01;3.25;;;1.10;;
25045;SDS011;13044;49.304;12.840;2022-09-09T15:06:32;2.15;;;1.00;;
25045;SDS011;13044;49.304;12.840;2022-09-09T15:09:02;2.65;;;1.15;;
25045;SDS011;13044;49.304;12.840;2022-09-09T15:11:30;5.00;;;1.38;;
25045;SDS011;13044;49.304;12.840;2022-09-09T15:14:04;2.88;;;1.40;;
25045;SDS011;13044;49.304;12.840;2022-09-09T15:16:32;3.83;;;1.20;;
25045;SDS011;13044;49.304;12.840;2022-09-09T15:19:00;2.13;;;1.20;;
25045;SDS011;13044;49.304;12.840;2022-09-09T15:21:31;3.15;;;1.67;;
25045;SDS011;13044;49.304;12.840;2022-09-09T15:24:01;3.08;;;1.50;;
25045;SDS011;13044;49.304;12.840;2022-09-09T15:26:28;3.00;;;1.42;;
25045;SDS011;13044;49.304;12.840;2022-09-09T15:28:56;2.72;;;1.00;;
25045;SDS011;13044;49.304;12.840;2022-09-09T15:31:29;2.13;;;1.23;;
25045;SDS011;13044;49.304;12.840;2022-09-09T15:34:01;1.77;;;1.13;;
25045;SDS011;13044;49.304;12.840;2022-09-09T15:39:02;3.83;;;1.30;;
25045;SDS011;13044;49.304;12.840;2022-09-09T15:41:32;3.03;;;1.25;;
25045;SDS011;13044;49.304;12.840;2022-09-09T15:43:59;3.15;;;1.38;;
25045;SDS011;13044;49.304;12.840;2022-09-09T15:46:37;2.78;;;1.20;;
25045;SDS011;13044;49.304;12.840;2022-09-09T15:51:45;1.75;;;1.27;;
25045;SDS011;13044;49.304;12.840;2022-09-09T15:54:18;2.65;;;1.17;;
25045;SDS011;13044;49.304;12.840;2022-09-09T15:56:49;1.67;;;1.00;;
25045;SDS011;13044;49.304;12.840;2022-09-09T15:59:29;3.42;;;1.23;;
25045;SDS011;13044;49.304;12.840;2022-09-09T16:01:57;5.15;;;1.30;;
25045;SDS011;13044;49.304;12.840;2022-09-09T16:04:26;2.05;;;1.10;;
25045;SDS011;13044;49.304;12.840;2022-09-09T16:06:56;2.03;;;1.40;;
25045;SDS011;13044;49.304;12.840;2022-09-09T16:09:26;4.53;;;1.20;;
25045;SDS011;13044;49.304;12.840;2022-09-09T16:11:58;1.90;;;1.20;;
25045;SDS011;13044;49.304;12.840;2022-09-09T16:14:27;2.83;;;1.17;;
25045;SDS011;13044;49.304;12.840;2022-09-09T16:16:54;3.35;;;1.50;;
25045;SDS011;13044;49.304;12.840;2022-09-09T16:19:22;3.80;;;1.17;;
25045;SDS011;13044;49.304;12.840;2022-09-09T16:21:49;1.70;;;1.20;;
25045;SDS011;13044;49.304;12.840;2022-09-09T16:24:17;5.10;;;0.98;;
25045;SDS011;13044;49.304;12.840;2022-09-09T16:26:47;1.42;;;1.25;;
25045;SDS011;13044;49.304;12.840;2022-09-09T16:29:17;2.75;;;1.45;;
25045;SDS011;13044;49.304;12.840;2022-09-09T16:31:45;6.45;;;1.38;;
25045;SDS011;13044;49.304;12.840;2022-09-09T16:34:13;3.60;;;1.20;;
25045;SDS011;13044;49.304;12.840;2022-09-09T16:36:42;2.97;;;1.30;;
25045;SDS011;13044;49.304;12.840;2022-09-09T16:39:10;3.28;;;1.30;;
25045;SDS011;13044;49.304;12.840;2022-09-09T16:41:43;3.67;;;1.10;;
25045;SDS011;13044;49.304;12.840;2022-09-09T16:44:12;6.07;;;1.30;;
25045;SDS011;13044;49.304;12.840;2022-09-09T16:46:42;2.00;;;1.20;;
25045;SDS011;13044;49.304;12.840;2022-09-09T16:49:11;2.50;;;1.00;;
25045;SDS011;13044;49.304;12.840;2022-09-09T16:51:48;3.40;;;1.50;;
25045;SDS011;13044;49.304;12.840;2022-09-09T16:54:19;2.83;;;0.93;;
25045;SDS011;13044;49.304;12.840;2022-09-09T16:56:46;1.80;;;1.20;;
25045;SDS011;13044;49.304;12.840;2022-09-09T16:59:15;3.03;;;1.13;;
25045;SDS011;13044;49.304;12.840;2022-09-09T17:01:47;2.55;;;1.20;;
25045;SDS011;13044;49.304;12.840;2022-09-09T17:04:17;2.38;;;1.30;;
25045;SDS011;13044;49.304;12.840;2022-09-09T17:06:48;4.00;;;1.60;;
25045;SDS011;13044;49.304;12.840;2022-09-09T17:09:18;3.58;;;1.83;;
25045;SDS011;13044;49.304;12.840;2022-09-09T17:11:47;2.35;;;1.08;;
25045;SDS011;13044;49.304;12.840;2022-09-09T17:14:17;11.40;;;2.13;;
25045;SDS011;13044;49.304;12.840;2022-09-09T17:16:45;6.55;;;1.80;;